Time;durP1;ratioP1;P1;durP2;ratioP2;P2;SDS_P1;SDS_P2;PMS_P1;PMS_P2;Temp;Humidity;BMP_temperature;BMP_pressure;BME280_temperature;BME280_humidity;BME280_pressure;Samples;Min_cycle;Max_cycle;Signal;HPM_P1;HPM_P2
2023/05/02 00:01:04;;;;;;;16.02;11.15;;;12.90;80.70;;;;;;5052306;28;20511;-70
2023/05/02 00:03:31;;;;;;;18.77;12.40;;;12.90;80.90;;;;;;5051596;28;20048;-68
2023/05/02 00:05:58;;;;;;;15.73;10.55;;;12.90;81.20;;;;;;5052459;28;20017;-70
2023/05/02 00:08:24;;;;;;;15.02;10.25;;;12.80;81.20;;;;;;5052285;28;20013;-69
2023/05/02 00:10:49;;;;;;;16.05;11.10;;;12.80;81.30;;;;;;5052690;28;20025;-69
2023/05/02 00:13:15;;;;;;;14.90;9.85;;;12.80;81.50;;;;;;5052214;28;20021;-69
2023/05/02 00:15:40;;;;;;;15.48;10.48;;;12.70;81.50;;;;;;5052321;28;20506;-69
2023/05/02 00:18:06;;;;;;;14.00;9.55;;;12.70;81.80;;;;;;5044042;28;20029;-69
2023/05/02 00:20:32;;;;;;;15.13;9.57;;;12.70;82.00;;;;;;5051943;28;20490;-69
2023/05/02 00:22:57;;;;;;;11.60;8.77;;;12.60;82.00;;;;;;5051809;28;20490;-69
2023/05/02 00:25:23;;;;;;;11.07;8.27;;;12.60;81.90;;;;;;5051727;28;20039;-69
2023/05/02 00:27:49;;;;;;;11.65;8.50;;;12.60;81.70;;;;;;5050949;28;20031;-68
2023/05/02 00:30:16;;;;;;;11.77;8.23;;;12.60;81.50;;;;;;5050790;28;20021;-69
2023/05/02 00:32:41;;;;;;;10.38;7.18;;;12.60;81.40;;;;;;5051691;28;20025;-69
2023/05/02 00:35:07;;;;;;;14.57;10.02;;;12.60;81.20;;;;;;5051071;28;20021;-68
2023/05/02 00:37:33;;;;;;;13.13;9.07;;;12.70;81.20;;;;;;5051415;28;20025;-68
2023/05/02 00:39:58;;;;;;;12.30;7.63;;;12.60;81.30;;;;;;5051672;28;20169;-69
2023/05/02 00:42:24;;;;;;;10.98;7.93;;;12.70;81.30;;;;;;5033014;28;20052;-70
2023/05/02 00:44:50;;;;;;;13.77;9.52;;;12.70;81.20;;;;;;5051465;28;20372;-69
2023/05/02 00:47:15;;;;;;;13.73;8.75;;;12.60;81.20;;;;;;5051289;28;20059;-68
2023/05/02 00:49:41;;;;;;;13.48;8.60;;;12.60;81.30;;;;;;5051150;28;20108;-69
2023/05/02 00:52:07;;;;;;;11.57;7.78;;;12.60;81.30;;;;;;5045764;28;20240;-69
2023/05/02 00:54:33;;;;;;;12.27;8.75;;;12.60;81.30;;;;;;5050953;28;20017;-69
2023/05/02 00:56:58;;;;;;;14.20;8.82;;;12.60;81.30;;;;;;5051104;28;20032;-70
2023/05/02 00:59:25;;;;;;;12.95;9.10;;;12.60;81.40;;;;;;5049885;28;20028;-69
2023/05/02 01:02:13;;;;;;;13.18;8.82;;;12.60;81.40;;;;;;5051178;28;20023;-69
2023/05/02 01:04:44;;;;;;;13.70;8.63;;;12.60;81.40;;;;;;5050691;28;20394;-68
2023/05/02 01:07:18;;;;;;;11.15;7.88;;;12.60;81.30;;;;;;5050698;28;20059;-69
2023/05/02 01:09:56;;;;;;;12.75;8.00;;;12.60;81.40;;;;;;5049502;28;20108;-68
2023/05/02 01:12:40;;;;;;;12.20;8.23;;;12.60;81.40;;;;;;5049136;28;20013;-68
2023/05/02 01:15:10;;;;;;;12.90;8.23;;;12.70;81.40;;;;;;5050640;28;20029;-68
2023/05/02 01:17:37;;;;;;;12.05;7.95;;;12.70;81.30;;;;;;5050966;28;20028;-69
2023/05/02 01:20:10;;;;;;;11.93;7.88;;;12.70;81.20;;;;;;5050760;28;20056;-69
2023/05/02 01:22:39;;;;;;;11.05;7.68;;;12.70;81.30;;;;;;5049440;28;20032;-68
2023/05/02 01:25:42;;;;;;;12.70;8.18;;;12.70;81.10;;;;;;5050593;28;20503;-68
2023/05/02 01:28:34;;;;;;;12.57;8.77;;;12.70;81.30;;;;;;5034845;28;20025;-68
2023/05/02 01:31:02;;;;;;;13.85;8.85;;;12.70;81.40;;;;;;5046969;28;20033;-69
2023/05/02 01:33:29;;;;;;;15.18;9.75;;;12.70;81.70;;;;;;5030667;28;20044;-69
2023/05/02 01:35:56;;;;;;;12.52;9.05;;;12.60;82.00;;;;;;5030823;28;20036;-68
2023/05/02 01:38:24;;;;;;;15.27;9.20;;;12.60;82.30;;;;;;5030521;28;20089;-68
2023/05/02 01:40:51;;;;;;;16.98;9.57;;;12.60;82.70;;;;;;5030738;28;20228;-68
2023/05/02 01:43:19;;;;;;;15.63;9.65;;;12.60;82.80;;;;;;5030445;28;20507;-69
2023/05/02 01:45:48;;;;;;;16.25;10.38;;;12.60;82.90;;;;;;5033611;28;20654;-69
2023/05/02 01:48:16;;;;;;;14.75;9.10;;;12.60;83.10;;;;;;5044319;28;20021;-68
2023/05/02 01:50:45;;;;;;;15.45;10.30;;;12.60;83.20;;;;;;5049909;28;20056;-69
2023/05/02 01:53:12;;;;;;;14.85;9.70;;;12.60;83.50;;;;;;5050001;28;20020;-69
2023/05/02 01:55:44;;;;;;;14.55;9.30;;;12.50;83.60;;;;;;5050267;28;20036;-69
2023/05/02 01:58:12;;;;;;;13.32;8.50;;;12.60;83.80;;;;;;5050251;28;20049;-69
2023/05/02 02:00:38;;;;;;;15.30;10.15;;;12.60;83.80;;;;;;5050262;28;20025;-70
2023/05/02 02:03:06;;;;;;;13.52;8.13;;;12.50;84.30;;;;;;5049941;28;20052;-69
2023/05/02 02:05:33;;;;;;;13.07;7.45;;;12.50;84.60;;;;;;5043495;28;20025;-68
2023/05/02 02:07:59;;;;;;;11.45;8.05;;;12.50;84.50;;;;;;5049987;28;20483;-69
2023/05/02 02:10:28;;;;;;;11.30;7.70;;;12.50;85.10;;;;;;5048934;28;20032;-69
2023/05/02 02:13:18;;;;;;;13.25;7.88;;;12.60;84.50;;;;;;5050025;28;20159;-69
2023/05/02 02:15:47;;;;;;;12.07;7.47;;;12.60;84.60;;;;;;5050203;28;20025;-67
2023/05/02 02:18:20;;;;;;;11.10;6.82;;;12.50;84.80;;;;;;5049840;28;20048;-69
2023/05/02 02:20:49;;;;;;;9.85;5.80;;;12.50;85.10;;;;;;5054263;28;20082;-67
2023/05/02 02:23:15;;;;;;;8.30;4.78;;;12.50;85.30;;;;;;5048174;28;20454;-69
2023/05/02 02:25:43;;;;;;;10.68;4.78;;;12.40;85.30;;;;;;5053894;28;20502;-68
2023/05/02 02:28:08;;;;;;;9.32;4.40;;;12.40;85.40;;;;;;5053850;28;20070;-69
2023/05/02 02:30:34;;;;;;;12.30;4.68;;;12.30;85.60;;;;;;5054118;28;20486;-67
2023/05/02 02:32:59;;;;;;;10.98;4.15;;;12.20;85.80;;;;;;5053988;28;20025;-69
2023/05/02 02:35:32;;;;;;;7.93;3.75;;;12.20;86.30;;;;;;5053934;28;20024;-69
2023/05/02 02:38:10;;;;;;;10.82;3.38;;;12.10;86.30;;;;;;5054171;28;20033;-69
2023/05/02 02:41:17;;;;;;;7.25;3.00;;;12.00;86.10;;;;;;5048064;28;20017;-69
2023/05/02 02:44:21;;;;;;;5.88;2.58;;;12.00;85.80;;;;;;5036254;28;20075;-69
2023/05/02 02:46:59;;;;;;;6.35;2.40;;;12.00;85.40;;;;;;5032865;28;20087;-69
2023/05/02 02:49:37;;;;;;;7.20;2.80;;;11.90;85.10;;;;;;5032750;28;20020;-67
2023/05/02 02:52:14;;;;;;;7.57;2.72;;;11.90;84.80;;;;;;5033683;28;20052;-68
2023/05/02 02:55:06;;;;;;;5.70;2.45;;;11.90;84.80;;;;;;5015819;28;20056;-68
2023/05/02 02:58:22;;;;;;;5.60;2.20;;;11.90;84.50;;;;;;5033555;28;20022;-69
2023/05/02 03:00:48;;;;;;;7.00;2.67;;;11.90;84.40;;;;;;5013072;28;20483;-68
2023/05/02 03:03:15;;;;;;;4.97;2.17;;;11.90;84.30;;;;;;5053426;28;20021;-69
2023/05/02 03:05:42;;;;;;;7.10;2.40;;;11.80;84.20;;;;;;5053019;28;20039;-69
2023/05/02 03:08:08;;;;;;;8.88;3.10;;;11.90;84.10;;;;;;5053348;28;20017;-68
2023/05/02 03:10:34;;;;;;;6.50;2.45;;;11.90;83.90;;;;;;5053385;28;20013;-69
2023/05/02 03:13:00;;;;;;;8.25;3.05;;;11.90;83.90;;;;;;5053593;28;20127;-69
2023/05/02 03:15:47;;;;;;;6.78;2.50;;;11.80;83.70;;;;;;5053123;28;20032;-69
2023/05/02 03:18:12;;;;;;;7.90;2.50;;;11.90;83.80;;;;;;5050428;28;20082;-69
2023/05/02 03:20:38;;;;;;;7.95;2.70;;;11.80;83.60;;;;;;5052969;28;20021;-69
2023/05/02 03:23:04;;;;;;;7.82;2.42;;;11.80;83.50;;;;;;5052928;28;20025;-68
2023/05/02 03:25:29;;;;;;;4.18;2.20;;;11.80;83.40;;;;;;5052810;28;20029;-69
2023/05/02 03:27:56;;;;;;;7.85;2.70;;;11.90;83.20;;;;;;5052732;28;20021;-70
2023/05/02 03:30:22;;;;;;;8.10;2.17;;;11.80;83.10;;;;;;5052503;28;20013;-68
2023/05/02 03:32:48;;;;;;;7.97;2.53;;;11.80;83.10;;;;;;5052589;28;20490;-70
2023/05/02 03:35:14;;;;;;;4.88;2.00;;;11.80;82.90;;;;;;5047783;28;20033;-69
2023/05/02 03:37:39;;;;;;;7.28;2.30;;;11.70;82.80;;;;;;5051345;28;20025;-69
2023/05/02 03:40:06;;;;;;;4.85;1.95;;;11.70;82.70;;;;;;5052811;28;20028;-68
2023/05/02 03:42:38;;;;;;;6.55;2.65;;;11.70;82.80;;;;;;5052507;28;20091;-70
2023/05/02 03:45:05;;;;;;;9.05;2.25;;;11.70;82.70;;;;;;5052658;28;20036;-70
2023/05/02 03:47:30;;;;;;;4.25;2.05;;;11.60;82.60;;;;;;5050960;28;20017;-69
2023/05/02 03:49:56;;;;;;;7.68;2.50;;;11.60;82.60;;;;;;5052574;28;20091;-69
2023/05/02 03:52:22;;;;;;;5.97;2.30;;;11.60;82.60;;;;;;5046354;28;20013;-68
2023/05/02 03:54:49;;;;;;;7.68;2.78;;;11.60;82.60;;;;;;5047811;28;20024;-69
2023/05/02 03:57:14;;;;;;;5.38;1.92;;;11.60;82.50;;;;;;5051661;28;20033;-70
2023/05/02 03:59:41;;;;;;;3.83;1.83;;;11.60;82.50;;;;;;5052147;28;20032;-70
2023/05/02 04:02:07;;;;;;;7.60;2.33;;;11.60;82.40;;;;;;5052278;28;20044;-69
2023/05/02 04:04:33;;;;;;;5.55;2.38;;;11.60;82.40;;;;;;5052247;28;20476;-68
2023/05/02 04:06:59;;;;;;;6.20;2.30;;;11.60;82.30;;;;;;5052237;28;20055;-68
2023/05/02 04:09:24;;;;;;;6.60;2.13;;;11.50;82.20;;;;;;5052213;28;20185;-68
2023/05/02 04:11:51;;;;;;;5.38;2.20;;;11.60;82.20;;;;;;5051467;28;20057;-68
2023/05/02 04:14:17;;;;;;;5.55;2.15;;;11.60;82.20;;;;;;5050521;28;20548;-69
2023/05/02 04:16:47;;;;;;;6.55;2.28;;;11.50;82.10;;;;;;5051822;28;20625;-68
2023/05/02 04:19:13;;;;;;;5.05;2.10;;;11.50;82.10;;;;;;5051910;28;20086;-67
2023/05/02 04:21:38;;;;;;;6.00;1.98;;;11.50;82.00;;;;;;5051943;28;20511;-68
2023/05/02 04:24:04;;;;;;;5.68;2.47;;;11.50;82.00;;;;;;5050495;28;20025;-68
2023/05/02 04:26:30;;;;;;;7.82;2.00;;;11.50;81.90;;;;;;5051794;28;20036;-68
2023/05/02 04:28:55;;;;;;;4.75;1.92;;;11.50;81.90;;;;;;5051539;28;20032;-68
2023/05/02 04:31:21;;;;;;;7.30;2.40;;;11.50;81.70;;;;;;5041491;28;20017;-69
2023/05/02 04:33:47;;;;;;;5.97;1.90;;;11.50;81.60;;;;;;5051693;28;20021;-69
2023/05/02 04:36:13;;;;;;;4.55;1.80;;;11.50;81.40;;;;;;5051638;28;20513;-69
2023/05/02 04:38:39;;;;;;;7.53;2.10;;;11.50;81.30;;;;;;5051614;28;20060;-68
2023/05/02 04:41:05;;;;;;;7.68;2.10;;;11.50;81.00;;;;;;5051022;28;20021;-69
2023/05/02 04:43:31;;;;;;;4.13;1.73;;;11.50;80.70;;;;;;5051200;28;20029;-68
2023/05/02 04:45:57;;;;;;;7.22;2.10;;;11.50;80.60;;;;;;5051145;28;20028;-67
2023/05/02 04:48:24;;;;;;;5.03;2.08;;;11.50;80.30;;;;;;5043441;28;20017;-68
2023/05/02 04:50:52;;;;;;;5.82;2.03;;;11.40;79.70;;;;;;5049731;28;20017;-69
2023/05/02 04:53:18;;;;;;;5.90;2.22;;;11.40;79.30;;;;;;5051255;28;20114;-69
2023/05/02 04:55:44;;;;;;;6.05;1.98;;;11.40;78.90;;;;;;5049958;28;20028;-68
2023/05/02 04:58:09;;;;;;;5.97;1.80;;;11.40;78.70;;;;;;5051139;28;20511;-69
2023/05/02 05:00:35;;;;;;;3.65;1.70;;;11.40;78.30;;;;;;5051506;28;20497;-68
2023/05/02 05:03:01;;;;;;;7.32;2.33;;;11.30;78.20;;;;;;5051725;28;20056;-68
2023/05/02 05:05:26;;;;;;;6.38;1.90;;;11.40;78.00;;;;;;5051932;28;20021;-69
2023/05/02 05:07:52;;;;;;;6.00;2.00;;;11.40;77.60;;;;;;5048784;28;20029;-69
2023/05/02 05:10:18;;;;;;;5.55;1.80;;;11.40;77.30;;;;;;5051032;28;20100;-68
2023/05/02 05:12:43;;;;;;;5.45;1.90;;;11.40;77.10;;;;;;5050650;28;20090;-67
2023/05/02 05:15:10;;;;;;;4.22;1.80;;;11.40;76.40;;;;;;5050875;28;20093;-68
2023/05/02 05:17:36;;;;;;;5.43;2.05;;;11.40;75.90;;;;;;5050781;28;20032;-68
2023/05/02 05:20:02;;;;;;;5.72;2.00;;;11.30;75.30;;;;;;5050818;28;20028;-68
2023/05/02 05:22:28;;;;;;;4.15;1.65;;;11.20;75.20;;;;;;5050761;28;20475;-68
2023/05/02 05:24:54;;;;;;;6.88;2.10;;;11.30;75.20;;;;;;5049113;28;20036;-68
2023/05/02 05:27:20;;;;;;;4.38;2.10;;;11.30;74.90;;;;;;5047820;28;20490;-67
2023/05/02 05:29:46;;;;;;;5.78;2.00;;;11.20;74.90;;;;;;5044809;28;20032;-67
2023/05/02 05:32:11;;;;;;;5.32;2.10;;;11.20;75.00;;;;;;5034850;28;20017;-68
2023/05/02 05:34:37;;;;;;;5.05;1.73;;;11.20;75.00;;;;;;5050553;28;20024;-70
2023/05/02 05:37:02;;;;;;;7.55;2.30;;;11.30;75.10;;;;;;5050451;28;20499;-68
2023/05/02 05:39:28;;;;;;;5.63;2.00;;;11.30;75.00;;;;;;5050510;28;20557;-68
2023/05/02 05:41:53;;;;;;;5.20;2.22;;;11.30;75.00;;;;;;5050393;28;20021;-69
2023/05/02 05:44:20;;;;;;;7.72;2.55;;;11.30;75.00;;;;;;5047499;28;20021;-69
2023/05/02 05:46:46;;;;;;;4.72;1.90;;;11.40;74.60;;;;;;5050091;28;20510;-70
2023/05/02 05:49:14;;;;;;;7.07;2.15;;;11.40;74.30;;;;;;5050316;28;20029;-70
2023/05/02 05:51:40;;;;;;;7.70;2.10;;;11.40;73.80;;;;;;5050559;28;20488;-70
2023/05/02 05:54:06;;;;;;;5.07;2.10;;;11.40;73.60;;;;;;5050196;28;20053;-69
2023/05/02 05:56:31;;;;;;;4.53;2.00;;;11.40;73.40;;;;;;5048901;28;20025;-69
2023/05/02 05:58:57;;;;;;;6.20;2.30;;;11.40;73.20;;;;;;5050022;28;20454;-69
2023/05/02 06:01:23;;;;;;;7.18;2.47;;;11.40;73.00;;;;;;5048843;28;20020;-68
2023/05/02 06:03:48;;;;;;;4.65;1.88;;;11.30;72.90;;;;;;5048960;28;20036;-70
2023/05/02 06:06:14;;;;;;;5.38;1.95;;;11.40;73.10;;;;;;5050310;28;20029;-69
2023/05/02 06:08:39;;;;;;;7.72;2.42;;;11.40;72.90;;;;;;5050102;28;20021;-67
2023/05/02 06:11:10;;;;;;;8.90;3.88;;;11.50;72.80;;;;;;5049945;28;20027;-68
2023/05/02 06:13:36;;;;;;;10.52;2.92;;;11.40;72.50;;;;;;5050110;28;20316;-67
2023/05/02 06:16:02;;;;;;;7.68;2.90;;;11.30;72.60;;;;;;5049894;28;20526;-68
2023/05/02 06:18:27;;;;;;;8.25;2.60;;;11.30;72.90;;;;;;5048608;28;20383;-68
2023/05/02 06:20:53;;;;;;;6.43;2.38;;;11.40;72.90;;;;;;5046757;28;20021;-67
2023/05/02 06:23:19;;;;;;;9.23;2.90;;;11.40;73.00;;;;;;5049570;28;20060;-68
2023/05/02 06:25:44;;;;;;;8.32;2.80;;;11.40;72.90;;;;;;5049753;28;20446;-68
2023/05/02 06:28:10;;;;;;;13.23;2.90;;;11.40;72.70;;;;;;5049873;28;20086;-68
2023/05/02 06:30:35;;;;;;;9.07;3.08;;;11.40;72.70;;;;;;5049874;28;20071;-69
2023/05/02 06:33:03;;;;;;;8.88;2.83;;;11.50;72.50;;;;;;5049862;28;20278;-68
2023/05/02 06:35:29;;;;;;;10.35;2.90;;;11.50;72.30;;;;;;5048487;28;20033;-68
2023/05/02 06:37:54;;;;;;;9.00;2.92;;;11.50;72.00;;;;;;5048369;28;20044;-69
2023/05/02 06:40:20;;;;;;;8.73;3.30;;;11.50;71.70;;;;;;5038765;28;20033;-69
2023/05/02 06:42:45;;;;;;;10.02;3.05;;;11.50;71.60;;;;;;5049787;28;20139;-69
2023/05/02 06:45:11;;;;;;;12.10;2.78;;;11.50;71.50;;;;;;5049813;28;20025;-69
2023/05/02 06:47:36;;;;;;;8.07;2.75;;;11.60;71.40;;;;;;5050149;28;20025;-68
2023/05/02 06:50:02;;;;;;;8.43;2.90;;;11.50;71.20;;;;;;5049838;28;20029;-67
2023/05/02 06:52:28;;;;;;;7.70;2.78;;;11.50;71.40;;;;;;5049510;28;20028;-68
2023/05/02 06:54:53;;;;;;;9.15;3.05;;;11.60;71.20;;;;;;5049547;28;20033;-68
2023/05/02 06:57:19;;;;;;;9.70;2.88;;;11.70;71.30;;;;;;5046980;28;20066;-68
2023/05/02 06:59:44;;;;;;;9.68;2.88;;;11.70;70.80;;;;;;5048085;28;20036;-68
2023/05/02 07:02:10;;;;;;;8.98;3.05;;;11.80;70.80;;;;;;5048056;28;20029;-69
2023/05/02 07:04:35;;;;;;;8.82;2.85;;;11.80;70.10;;;;;;5050182;28;20064;-69
2023/05/02 07:07:02;;;;;;;5.97;2.30;;;11.90;69.50;;;;;;5053012;28;20022;-66
2023/05/02 07:09:28;;;;;;;7.35;2.83;;;11.90;68.80;;;;;;5052084;28;20035;-69
2023/05/02 07:11:53;;;;;;;6.30;2.30;;;11.80;68.70;;;;;;5053529;28;20029;-68
2023/05/02 07:14:19;;;;;;;7.55;2.33;;;11.80;68.00;;;;;;5047060;28;20017;-67
2023/05/02 07:16:45;;;;;;;7.22;2.50;;;11.70;67.80;;;;;;5052046;28;20507;-67
2023/05/02 07:19:10;;;;;;;6.43;2.30;;;11.70;67.50;;;;;;5052820;28;20231;-69
2023/05/02 07:21:36;;;;;;;5.70;2.00;;;11.70;67.10;;;;;;5053044;28;20029;-68
2023/05/02 07:24:02;;;;;;;6.13;2.35;;;11.70;67.90;;;;;;5053566;28;20032;-67
2023/05/02 07:26:29;;;;;;;6.15;1.98;;;11.70;67.10;;;;;;5053057;28;20540;-67
2023/05/02 07:28:54;;;;;;;4.47;1.80;;;11.80;66.50;;;;;;5052227;28;20071;-68
2023/05/02 07:31:20;;;;;;;4.50;2.17;;;11.70;66.20;;;;;;5053412;28;20423;-68
2023/05/02 07:33:45;;;;;;;4.18;1.90;;;11.80;66.30;;;;;;5048114;28;20020;-66
2023/05/02 07:36:11;;;;;;;6.47;2.42;;;11.90;66.20;;;;;;5052659;28;20446;-69
2023/05/02 07:38:37;;;;;;;4.70;1.90;;;11.80;65.30;;;;;;5052505;28;20025;-68
2023/05/02 07:41:02;;;;;;;5.43;1.98;;;11.90;65.40;;;;;;5052909;28;20448;-69
2023/05/02 07:43:28;;;;;;;5.78;2.00;;;11.90;64.70;;;;;;5052826;28;20395;-69
2023/05/02 07:45:53;;;;;;;4.65;1.98;;;11.90;64.80;;;;;;5052594;28;20380;-69
2023/05/02 07:48:19;;;;;;;5.45;1.83;;;11.90;64.50;;;;;;5052742;28;20025;-69
2023/05/02 07:50:45;;;;;;;4.95;2.13;;;12.00;64.50;;;;;;5051095;28;20051;-69
2023/05/02 07:53:10;;;;;;;9.80;2.33;;;12.00;64.10;;;;;;5051688;28;20124;-68
2023/05/02 07:55:36;;;;;;;4.35;2.08;;;11.90;63.40;;;;;;5044074;28;20459;-69
2023/05/02 07:58:02;;;;;;;6.40;2.30;;;11.80;63.90;;;;;;5051149;28;20083;-70
2023/05/02 08:00:29;;;;;;;5.40;2.30;;;11.80;64.30;;;;;;5052260;28;20049;-70
2023/05/02 08:02:54;;;;;;;8.05;2.70;;;11.80;64.60;;;;;;5052361;28;20506;-69
2023/05/02 08:05:20;;;;;;;5.45;2.47;;;11.70;64.80;;;;;;5052122;28;20116;-69
2023/05/02 08:07:46;;;;;;;4.95;2.10;;;11.70;65.20;;;;;;5052110;28;20024;-70
2023/05/02 08:10:12;;;;;;;6.32;2.03;;;11.70;65.40;;;;;;5043229;28;20391;-70
2023/05/02 08:12:41;;;;;;;7.45;2.53;;;11.70;65.40;;;;;;5042323;28;20490;-69
2023/05/02 08:15:10;;;;;;;6.53;2.35;;;11.80;65.10;;;;;;5050704;28;20025;-68
2023/05/02 08:17:35;;;;;;;4.50;2.03;;;11.70;65.00;;;;;;5049243;28;20372;-69
2023/05/02 08:20:01;;;;;;;7.45;2.20;;;11.80;64.60;;;;;;5051785;28;20027;-69
2023/05/02 08:22:26;;;;;;;4.28;1.70;;;11.80;64.10;;;;;;5050533;28;20025;-69
2023/05/02 08:24:52;;;;;;;3.63;1.65;;;11.80;64.00;;;;;;5051565;28;20095;-69
2023/05/02 08:27:18;;;;;;;4.93;2.15;;;12.00;63.80;;;;;;5049748;28;20075;-69
2023/05/02 08:29:43;;;;;;;3.97;1.65;;;12.10;63.30;;;;;;5047498;28;20018;-69
2023/05/02 08:32:09;;;;;;;3.97;1.58;;;12.10;62.20;;;;;;5051533;28;20450;-69
2023/05/02 08:34:35;;;;;;;4.40;1.70;;;12.30;62.20;;;;;;5051590;28;20028;-69
2023/05/02 08:37:01;;;;;;;3.95;1.65;;;12.50;62.00;;;;;;5051343;28;20064;-69
2023/05/02 08:39:26;;;;;;;3.50;1.60;;;12.60;61.30;;;;;;5050104;28;20052;-69
2023/05/02 08:41:52;;;;;;;4.65;1.40;;;12.70;60.80;;;;;;5051494;28;20687;-69
2023/05/02 08:44:17;;;;;;;4.00;1.92;;;12.90;60.50;;;;;;5051435;28;20033;-69
2023/05/02 08:46:44;;;;;;;7.47;2.13;;;13.20;60.20;;;;;;5046732;28;20024;-69
2023/05/02 08:49:10;;;;;;;4.50;2.00;;;13.30;58.70;;;;;;5051062;28;20021;-70
2023/05/02 08:51:37;;;;;;;4.38;1.85;;;13.40;58.30;;;;;;5050021;28;20120;-70
2023/05/02 08:54:06;;;;;;;3.70;1.55;;;13.50;57.80;;;;;;5051195;28;20021;-69
2023/05/02 08:56:31;;;;;;;3.25;1.60;;;13.40;55.30;;;;;;5051110;28;20029;-69
2023/05/02 08:58:57;;;;;;;4.18;1.83;;;13.20;54.80;;;;;;5049560;28;20344;-69
2023/05/02 09:01:26;;;;;;;5.45;1.75;;;13.10;55.10;;;;;;5051030;28;20029;-70
2023/05/02 09:03:53;;;;;;;3.80;1.95;;;13.00;55.20;;;;;;5042130;28;20070;-69
2023/05/02 09:06:20;;;;;;;4.57;1.58;;;13.10;55.50;;;;;;5048277;28;20025;-69
2023/05/02 09:08:48;;;;;;;4.47;1.70;;;13.30;56.40;;;;;;5050484;28;20029;-68
2023/05/02 09:11:15;;;;;;;3.25;1.60;;;13.30;55.10;;;;;;5050929;28;20387;-68
2023/05/02 09:13:45;;;;;;;5.57;1.75;;;13.30;54.80;;;;;;5050907;28;20171;-68
2023/05/02 09:16:12;;;;;;;4.75;1.70;;;13.30;54.70;;;;;;5050878;28;20021;-69
2023/05/02 09:18:49;;;;;;;3.25;1.67;;;13.10;53.20;;;;;;5050640;28;20108;-68
2023/05/02 09:21:19;;;;;;;3.97;1.75;;;13.10;53.90;;;;;;5050441;28;20546;-68
2023/05/02 09:23:47;;;;;;;5.85;1.80;;;13.10;53.70;;;;;;5048925;28;20021;-68
2023/05/02 09:26:26;;;;;;;4.38;1.70;;;13.20;53.60;;;;;;5050260;28;20033;-68
2023/05/02 09:28:55;;;;;;;4.78;2.00;;;13.20;53.00;;;;;;5041694;28;20383;-67
2023/05/02 09:31:32;;;;;;;4.13;1.80;;;13.20;53.40;;;;;;5050634;28;20380;-69
2023/05/02 09:34:08;;;;;;;3.90;1.70;;;13.40;53.10;;;;;;5050447;28;20122;-70
2023/05/02 09:36:46;;;;;;;2.72;1.60;;;13.30;52.30;;;;;;5050651;28;20100;-70
2023/05/02 09:39:14;;;;;;;2.55;1.70;;;13.40;52.40;;;;;;5051260;28;20028;-68
2023/05/02 09:41:44;;;;;;;4.82;1.60;;;13.50;52.40;;;;;;5044006;28;20029;-70
2023/05/02 09:44:18;;;;;;;6.20;1.77;;;13.70;52.10;;;;;;5050390;28;20032;-68
2023/05/02 09:46:46;;;;;;;4.40;1.92;;;13.80;50.90;;;;;;5050119;28;20390;-69
2023/05/02 09:49:13;;;;;;;5.57;1.80;;;13.80;50.80;;;;;;5050295;28;20013;-67
2023/05/02 09:51:39;;;;;;;3.53;1.48;;;13.80;50.30;;;;;;5050161;28;20045;-68
2023/05/02 09:54:05;;;;;;;3.13;1.67;;;13.80;50.70;;;;;;5050423;28;20107;-68
2023/05/02 09:56:31;;;;;;;4.22;1.67;;;13.80;49.90;;;;;;5050410;28;20060;-69
2023/05/02 09:59:15;;;;;;;3.35;1.60;;;13.90;50.10;;;;;;5046884;28;20031;-67
2023/05/02 10:01:41;;;;;;;5.55;1.90;;;13.90;50.10;;;;;;5044487;28;20028;-68
2023/05/02 10:04:17;;;;;;;3.67;1.95;;;14.20;50.10;;;;;;5050625;28;20045;-69
2023/05/02 10:06:44;;;;;;;2.97;1.58;;;14.30;49.40;;;;;;5048491;28;20108;-68
2023/05/02 10:09:11;;;;;;;3.28;1.42;;;14.20;48.70;;;;;;5046851;28;20025;-69
2023/05/02 10:11:41;;;;;;;2.10;1.50;;;14.10;48.60;;;;;;5050279;28;20018;-68
2023/05/02 10:14:11;;;;;;;3.47;1.42;;;14.20;49.20;;;;;;5049946;28;20056;-67
2023/05/02 10:16:58;;;;;;;2.75;1.33;;;14.30;48.80;;;;;;5050004;28;20413;-66
2023/05/02 10:19:28;;;;;;;2.83;1.50;;;14.50;48.70;;;;;;5050423;28;20056;-68
2023/05/02 10:21:55;;;;;;;3.00;1.40;;;14.70;48.50;;;;;;5050001;28;20060;-70
2023/05/02 10:24:23;;;;;;;2.50;1.40;;;14.80;48.40;;;;;;5050086;28;20021;-68
2023/05/02 10:26:49;;;;;;;4.88;1.85;;;14.90;47.60;;;;;;5049722;28;20029;-68
2023/05/02 10:29:15;;;;;;;4.35;1.63;;;14.70;47.20;;;;;;5049807;28;20499;-69
2023/05/02 10:31:42;;;;;;;6.70;1.85;;;14.60;47.50;;;;;;5049843;28;20078;-69
2023/05/02 10:34:10;;;;;;;5.15;1.75;;;14.60;47.40;;;;;;5049612;28;20017;-69
2023/05/02 10:36:36;;;;;;;5.82;2.10;;;14.60;47.70;;;;;;5049710;28;20029;-68
2023/05/02 10:39:02;;;;;;;3.50;1.90;;;14.70;47.20;;;;;;5049661;28;20387;-69
2023/05/02 10:41:30;;;;;;;3.35;1.80;;;14.70;46.70;;;;;;5053306;28;20104;-67
2023/05/02 10:43:57;;;;;;;6.00;1.70;;;14.80;46.70;;;;;;5053530;28;20047;-67
2023/05/02 10:46:35;;;;;;;2.63;1.50;;;14.90;46.70;;;;;;5053798;28;20021;-69
2023/05/02 10:49:09;;;;;;;4.53;1.80;;;15.10;46.90;;;;;;5053414;28;20025;-69
2023/05/02 10:51:37;;;;;;;3.17;1.75;;;15.20;46.00;;;;;;5053601;28;20017;-68
2023/05/02 10:54:22;;;;;;;3.83;1.70;;;15.20;45.80;;;;;;5053570;28;20021;-69
2023/05/02 10:57:06;;;;;;;3.60;1.70;;;15.20;45.90;;;;;;5052298;28;20025;-69
2023/05/02 10:59:38;;;;;;;4.03;1.48;;;15.20;45.40;;;;;;5053591;28;20033;-70
2023/05/02 11:02:26;;;;;;;4.03;1.92;;;15.40;45.90;;;;;;5053601;28;20021;-68
2023/05/02 11:05:01;;;;;;;3.75;2.00;;;15.50;45.10;;;;;;5046473;28;20449;-69
2023/05/02 11:07:27;;;;;;;2.80;1.40;;;15.40;45.20;;;;;;5053207;28;20048;-68
2023/05/02 11:10:13;;;;;;;3.72;1.90;;;15.40;45.20;;;;;;5052119;28;20469;-67
2023/05/02 11:12:48;;;;;;;5.85;1.80;;;15.50;45.40;;;;;;5053396;28;20086;-68
2023/05/02 11:15:35;;;;;;;5.00;1.98;;;15.60;45.40;;;;;;5052880;28;20476;-68
2023/05/02 11:18:06;;;;;;;4.35;1.67;;;15.70;44.40;;;;;;5052892;28;20111;-67
2023/05/02 11:20:32;;;;;;;3.30;1.40;;;15.70;44.50;;;;;;5052972;28;20628;-68
2023/05/02 11:23:14;;;;;;;4.72;1.80;;;15.80;44.00;;;;;;5053077;28;20021;-68
2023/05/02 11:25:45;;;;;;;5.15;1.60;;;15.80;43.90;;;;;;5052606;28;20132;-68
2023/05/02 11:28:39;;;;;;;5.88;1.60;;;15.90;44.10;;;;;;5052999;28;20638;-69
2023/05/02 11:31:06;;;;;;;5.70;2.20;;;16.10;44.00;;;;;;5052758;28;20031;-67
2023/05/02 11:33:32;;;;;;;5.05;2.00;;;16.20;43.70;;;;;;5053069;28;20388;-68
2023/05/02 11:35:58;;;;;;;6.20;2.13;;;16.10;43.20;;;;;;5052597;28;20040;-68
2023/05/02 11:38:26;;;;;;;5.75;1.75;;;16.10;43.60;;;;;;5052689;28;20033;-68
2023/05/02 11:40:55;;;;;;;4.28;2.10;;;16.20;43.60;;;;;;5052841;28;20467;-68
2023/05/02 11:43:22;;;;;;;4.85;1.90;;;16.30;43.80;;;;;;5052720;28;20035;-68
2023/05/02 11:45:48;;;;;;;5.45;2.00;;;16.50;43.60;;;;;;5052864;28;20017;-68
2023/05/02 11:48:16;;;;;;;4.85;1.90;;;16.50;42.40;;;;;;5052609;28;20021;-68
2023/05/02 11:50:47;;;;;;;5.10;2.03;;;16.50;42.90;;;;;;5052146;28;20112;-68
2023/05/02 11:53:15;;;;;;;5.47;2.30;;;16.60;42.50;;;;;;5052395;28;20029;-68
2023/05/02 11:55:45;;;;;;;6.00;1.85;;;16.70;42.00;;;;;;5052404;28;20025;-69
2023/05/02 11:58:16;;;;;;;5.03;1.95;;;16.60;42.10;;;;;;5052323;28;20199;-69
2023/05/02 12:00:46;;;;;;;4.72;2.10;;;16.50;42.30;;;;;;5052367;28;20384;-67
2023/05/02 12:03:28;;;;;;;5.47;2.10;;;16.30;41.70;;;;;;5050890;28;20116;-68
2023/05/02 12:05:54;;;;;;;4.38;1.83;;;16.20;42.50;;;;;;5052533;28;20029;-68
2023/05/02 12:08:24;;;;;;;5.60;2.00;;;16.30;42.80;;;;;;5052069;28;20105;-67
2023/05/02 12:10:51;;;;;;;7.07;2.70;;;16.40;42.20;;;;;;5052751;28;20426;-67
2023/05/02 12:13:18;;;;;;;4.40;2.10;;;16.50;42.00;;;;;;5052127;28;20013;-68
2023/05/02 12:15:44;;;;;;;4.65;1.92;;;16.60;41.70;;;;;;5052158;28;20039;-69
2023/05/02 12:18:09;;;;;;;7.53;2.10;;;16.60;41.30;;;;;;5052076;28;20025;-68
2023/05/02 12:20:37;;;;;;;5.25;2.10;;;16.60;41.50;;;;;;5052081;28;20387;-69
2023/05/02 12:23:05;;;;;;;6.13;2.30;;;16.70;41.40;;;;;;5051901;28;20108;-68
2023/05/02 12:25:31;;;;;;;6.40;2.00;;;16.60;41.00;;;;;;5051925;28;20036;-68
2023/05/02 12:28:01;;;;;;;4.82;2.15;;;16.60;41.00;;;;;;5051771;28;20039;-68
2023/05/02 12:30:29;;;;;;;4.70;2.17;;;16.50;41.20;;;;;;5052323;28;20017;-69
2023/05/02 12:32:58;;;;;;;4.55;1.88;;;16.70;41.10;;;;;;5052112;28;20032;-68
2023/05/02 12:35:24;;;;;;;7.75;2.20;;;16.70;40.80;;;;;;5052291;28;20021;-68
2023/05/02 12:37:51;;;;;;;4.43;1.90;;;16.80;40.40;;;;;;5050735;28;20453;-67
2023/05/02 12:40:16;;;;;;;4.75;2.00;;;16.90;40.90;;;;;;5051615;28;20017;-69
2023/05/02 12:42:42;;;;;;;4.82;1.83;;;17.20;40.60;;;;;;5051724;28;20021;-67
2023/05/02 12:45:17;;;;;;;7.40;2.20;;;17.40;40.60;;;;;;5051464;28;20025;-67
2023/05/02 12:47:46;;;;;;;5.10;2.10;;;17.60;39.60;;;;;;5051454;28;20096;-68
2023/05/02 12:50:11;;;;;;;6.13;2.35;;;17.60;40.30;;;;;;5051341;28;20051;-67
2023/05/02 12:52:59;;;;;;;4.22;2.30;;;17.80;39.90;;;;;;5050070;28;20264;-68